Time;durP1;ratioP1;P1;durP2;ratioP2;P2;SDS_P1;SDS_P2;PMS_P1;PMS_P2;Temp;Humidity;BMP_temperature;BMP_pressure;BME280_temperature;BME280_humidity;BME280_pressure;Samples;Min_cycle;Max_cycle;Signal;HPM_P1;HPM_P2
2024/03/25 00:01:21;;;;;;;29.75;4.68;;;7.00;59.10;;;;;;5036084;28;20477;-71
2024/03/25 00:03:47;;;;;;;21.27;4.85;;;7.00;59.20;;;;;;5032680;28;20434;-70
2024/03/25 00:06:12;;;;;;;23.40;4.53;;;7.10;58.80;;;;;;5033945;28;20383;-70
2024/03/25 00:08:38;;;;;;;20.17;5.20;;;7.10;58.90;;;;;;5045383;28;20375;-71
2024/03/25 00:11:04;;;;;;;16.13;4.72;;;7.10;59.00;;;;;;5050510;28;20388;-71
2024/03/25 00:13:29;;;;;;;22.60;5.35;;;7.10;59.40;;;;;;5046385;28;20395;-70
2024/03/25 00:15:55;;;;;;;28.83;5.15;;;7.10;60.50;;;;;;5042828;28;20391;-71
2024/03/25 00:18:20;;;;;;;24.60;5.53;;;7.10;61.40;;;;;;5042202;28;20734;-70
2024/03/25 00:20:46;;;;;;;23.40;5.28;;;7.10;61.10;;;;;;5042816;28;20395;-70
2024/03/25 00:23:11;;;;;;;24.75;5.70;;;7.10;60.90;;;;;;5035880;28;20407;-71
2024/03/25 00:25:37;;;;;;;28.95;5.10;;;7.10;60.50;;;;;;5033064;28;20877;-71
2024/03/25 00:28:04;;;;;;;21.20;5.65;;;7.10;61.40;;;;;;5032976;28;20406;-71
2024/03/25 00:30:29;;;;;;;24.13;5.15;;;7.10;61.70;;;;;;5031037;28;20928;-71
2024/03/25 00:32:55;;;;;;;21.95;4.85;;;7.10;62.20;;;;;;5031340;28;20418;-70
2024/03/25 00:35:21;;;;;;;23.83;5.50;;;7.10;60.90;;;;;;5031915;28;20386;-71
2024/03/25 00:37:46;;;;;;;25.30;5.03;;;7.10;60.10;;;;;;5040187;28;20937;-71
2024/03/25 00:40:12;;;;;;;27.57;5.37;;;7.10;60.00;;;;;;5042816;28;20523;-71
2024/03/25 00:42:38;;;;;;;21.13;4.80;;;7.10;59.60;;;;;;5042194;28;20436;-72
2024/03/25 00:45:05;;;;;;;26.50;5.50;;;6.90;61.40;;;;;;5013508;28;20387;-69
2024/03/25 00:47:31;;;;;;;29.53;5.10;;;6.80;62.20;;;;;;5030856;28;20936;-70
2024/03/25 00:49:57;;;;;;;20.90;5.20;;;6.70;63.20;;;;;;5012872;28;20387;-71
2024/03/25 00:52:23;;;;;;;25.00;5.23;;;6.70;63.90;;;;;;5030735;28;20471;-70
2024/03/25 00:54:48;;;;;;;36.30;6.80;;;6.60;64.50;;;;;;5031304;28;20383;-70
2024/03/25 00:57:14;;;;;;;28.67;6.20;;;6.50;66.00;;;;;;5031092;28;20932;-70
2024/03/25 00:59:40;;;;;;;25.80;5.80;;;6.50;66.60;;;;;;5030715;28;20411;-70
2024/03/25 01:02:05;;;;;;;25.37;5.57;;;6.50;67.00;;;;;;5030615;28;20403;-70
2024/03/25 01:04:31;;;;;;;28.05;5.85;;;6.50;66.70;;;;;;5030752;28;20881;-71
2024/03/25 01:06:56;;;;;;;29.25;6.78;;;6.50;66.70;;;;;;5030634;28;20394;-70
2024/03/25 01:09:22;;;;;;;21.65;5.43;;;6.50;66.20;;;;;;5030338;28;20741;-70
2024/03/25 01:11:48;;;;;;;29.88;6.40;;;6.40;67.40;;;;;;5030174;28;20379;-70
2024/03/25 01:14:13;;;;;;;27.40;6.57;;;6.40;67.70;;;;;;5029893;28;20390;-70
2024/03/25 01:16:39;;;;;;;27.73;6.22;;;6.20;68.90;;;;;;5030233;28;20437;-70
2024/03/25 01:19:04;;;;;;;25.03;6.30;;;6.20;69.00;;;;;;5030425;28;20987;-70
2024/03/25 01:21:30;;;;;;;32.67;6.57;;;6.10;70.00;;;;;;5031931;28;20382;-70
2024/03/25 01:23:56;;;;;;;34.43;7.17;;;6.10;71.40;;;;;;5030560;28;20437;-70
2024/03/25 01:26:21;;;;;;;30.23;6.90;;;6.00;72.80;;;;;;5031075;28;20386;-70
2024/03/25 01:28:47;;;;;;;25.02;6.78;;;5.90;73.80;;;;;;5030744;28;20402;-70
2024/03/25 01:31:13;;;;;;;24.83;6.70;;;5.80;75.10;;;;;;5030635;28;20862;-70
2024/03/25 01:33:39;;;;;;;20.88;6.57;;;5.80;76.10;;;;;;5030930;28;20790;-70
2024/03/25 01:36:05;;;;;;;28.45;7.40;;;5.80;76.70;;;;;;5030940;28;20398;-71
2024/03/25 01:38:31;;;;;;;21.52;6.18;;;5.70;77.40;;;;;;5030773;28;20434;-69
2024/03/25 01:41:10;;;;;;;34.87;6.70;;;5.70;78.30;;;;;;5033251;28;20946;-71
2024/03/25 01:43:36;;;;;;;27.27;7.20;;;5.70;77.80;;;;;;5034349;28;20405;-70
2024/03/25 01:46:02;;;;;;;21.05;6.57;;;5.70;78.50;;;;;;5035335;28;20395;-70
2024/03/25 01:48:28;;;;;;;30.60;7.20;;;5.60;78.90;;;;;;5034382;28;20386;-70
2024/03/25 01:50:54;;;;;;;29.90;7.60;;;5.50;79.60;;;;;;5033939;28;20414;-68
2024/03/25 01:53:20;;;;;;;27.15;7.00;;;5.40;81.50;;;;;;5016423;28;20756;-71
2024/03/25 01:55:48;;;;;;;24.83;6.85;;;5.50;82.40;;;;;;5034284;28;20391;-69
2024/03/25 01:58:14;;;;;;;23.63;7.20;;;5.50;83.10;;;;;;5034194;28;20419;-70
2024/03/25 02:00:40;;;;;;;30.13;7.30;;;5.50;83.10;;;;;;5035942;28;20386;-71
2024/03/25 02:03:06;;;;;;;29.60;7.68;;;5.50;84.20;;;;;;5035583;28;20514;-71
2024/03/25 02:05:34;;;;;;;28.57;7.13;;;5.40;84.90;;;;;;5034297;28;20853;-69
2024/03/25 02:07:59;;;;;;;25.15;8.10;;;5.40;85.70;;;;;;5034146;28;20410;-70
2024/03/25 02:10:26;;;;;;;28.23;7.70;;;5.40;85.90;;;;;;5034807;28;20410;-70
2024/03/25 02:12:51;;;;;;;26.83;7.53;;;5.40;85.90;;;;;;5033632;28;20470;-70
2024/03/25 02:15:18;;;;;;;32.88;8.93;;;5.30;88.30;;;;;;5016004;28;20387;-70
2024/03/25 02:17:43;;;;;;;28.00;8.63;;;5.30;89.20;;;;;;5033576;28;20387;-70
2024/03/25 02:20:10;;;;;;;35.30;8.90;;;5.20;90.40;;;;;;5033251;28;20478;-70
2024/03/25 02:22:36;;;;;;;30.52;7.78;;;5.20;90.80;;;;;;5033406;28;20399;-71
2024/03/25 02:25:06;;;;;;;22.38;7.43;;;5.10;91.80;;;;;;5033255;28;20464;-71
2024/03/25 02:27:32;;;;;;;30.77;8.00;;;5.10;92.80;;;;;;5033973;28;20753;-70
2024/03/25 02:30:09;;;;;;;35.35;7.95;;;5.00;92.40;;;;;;5039512;23;20435;-74
2024/03/25 02:32:35;;;;;;;28.20;8.60;;;5.10;93.40;;;;;;5013407;28;20377;-74
2024/03/25 02:35:03;;;;;;;23.65;7.78;;;5.00;93.20;;;;;;4997061;28;20915;-74
2024/03/25 02:37:28;;;;;;;27.60;7.30;;;5.00;93.50;;;;;;4995809;28;20400;-75
2024/03/25 02:39:57;;;;;;;30.08;7.63;;;5.00;94.20;;;;;;5011997;28;20389;-74
2024/03/25 02:42:24;;;;;;;24.88;7.18;;;5.00;94.20;;;;;;5013071;28;20412;-74
2024/03/25 02:44:50;;;;;;;25.77;7.03;;;4.90;94.70;;;;;;5013089;28;20393;-74
2024/03/25 02:47:17;;;;;;;31.50;6.90;;;4.90;95.10;;;;;;5013590;28;20393;-74
2024/03/25 02:49:43;;;;;;;27.67;7.72;;;5.00;95.50;;;;;;4995819;28;20441;-74
2024/03/25 02:52:08;;;;;;;34.83;7.85;;;5.00;95.30;;;;;;5012742;28;20425;-75
2024/03/25 02:54:34;;;;;;;26.98;8.02;;;4.90;95.10;;;;;;5013340;28;20871;-75
2024/03/25 02:56:59;;;;;;;30.85;8.38;;;4.90;95.50;;;;;;4996027;28;20395;-74
2024/03/25 02:59:25;;;;;;;25.55;7.38;;;4.90;95.30;;;;;;5014112;28;20389;-74
2024/03/25 03:01:50;;;;;;;25.83;7.47;;;4.90;96.20;;;;;;5015086;28;20393;-73
2024/03/25 03:04:16;;;;;;;26.60;7.77;;;4.80;96.30;;;;;;5013913;28;20385;-74
2024/03/25 03:06:41;;;;;;;26.17;8.20;;;4.80;96.30;;;;;;5013374;28;20432;-75
2024/03/25 03:09:07;;;;;;;28.23;7.33;;;4.80;97.30;;;;;;5012967;28;20736;-75
2024/03/25 03:11:33;;;;;;;28.83;8.03;;;4.80;96.80;;;;;;5013437;28;20475;-75
2024/03/25 03:13:58;;;;;;;39.08;8.30;;;5.20;97.10;;;;;;5013707;28;20389;-75
2024/03/25 03:16:24;;;;;;;31.50;7.88;;;4.80;96.40;;;;;;5013048;28;20396;-75
2024/03/25 03:18:49;;;;;;;38.35;8.40;;;4.80;95.90;;;;;;5012895;28;20395;-74
2024/03/25 03:21:15;;;;;;;34.40;7.63;;;4.80;96.50;;;;;;5012675;28;20397;-74
2024/03/25 03:23:40;;;;;;;29.15;8.20;;;4.80;97.10;;;;;;5012594;28;20427;-74
2024/03/25 03:26:06;;;;;;;24.83;7.28;;;4.80;96.60;;;;;;5012574;28;20937;-75
2024/03/25 03:28:31;;;;;;;30.85;7.57;;;4.80;96.50;;;;;;5012216;28;20863;-75
2024/03/25 03:30:57;;;;;;;34.78;7.70;;;4.70;97.20;;;;;;5012499;28;20485;-75
2024/03/25 03:33:22;;;;;;;39.55;8.13;;;4.70;97.90;;;;;;5012591;28;20384;-75
2024/03/25 03:35:49;;;;;;;22.23;6.73;;;4.70;98.60;;;;;;5012460;28;20449;-73
2024/03/25 03:38:14;;;;;;;31.17;6.93;;;4.60;99.10;;;;;;5012380;28;20416;-75
2024/03/25 03:40:40;;;;;;;23.77;7.50;;;4.60;99.90;;;;;;4994869;28;20917;-75
2024/03/25 03:43:06;;;;;;;27.47;7.10;;;4.70;99.50;;;;;;5012629;28;20405;-74
2024/03/25 03:45:35;;;;;;;28.17;6.87;;;4.80;98.50;;;;;;5012277;28;20475;-74
2024/03/25 03:48:01;;;;;;;26.85;7.38;;;4.80;97.60;;;;;;5012168;28;20395;-73
2024/03/25 03:50:26;;;;;;;22.00;6.97;;;4.90;97.10;;;;;;4994542;28;20755;-75
2024/03/25 03:52:52;;;;;;;33.90;6.83;;;4.90;96.60;;;;;;4994400;28;20393;-74
2024/03/25 03:55:17;;;;;;;29.70;7.37;;;4.80;97.30;;;;;;5011893;28;20471;-74
2024/03/25 03:57:43;;;;;;;19.90;6.83;;;4.90;97.20;;;;;;5012195;28;20381;-73
2024/03/25 04:00:11;;;;;;;28.20;7.07;;;5.00;96.00;;;;;;5011896;28;20463;-74
2024/03/25 04:02:37;;;;;;;28.80;6.75;;;5.00;95.10;;;;;;5011157;28;20397;-74
2024/03/25 04:05:03;;;;;;;37.35;7.60;;;5.10;94.70;;;;;;5012096;28;20412;-74
2024/03/25 04:07:30;;;;;;;26.25;6.80;;;5.20;94.50;;;;;;5012290;28;20890;-73
2024/03/25 04:09:57;;;;;;;26.33;7.40;;;5.20;92.90;;;;;;5011597;28;20391;-74
2024/03/25 04:12:23;;;;;;;25.33;7.25;;;5.40;91.50;;;;;;5011515;28;20820;-74
2024/03/25 04:14:54;;;;;;;34.72;7.60;;;5.40;90.40;;;;;;5011712;28;20471;-74
2024/03/25 04:17:21;;;;;;;28.10;7.18;;;5.40;89.40;;;;;;5010189;28;20762;-75
2024/03/25 04:19:46;;;;;;;30.07;6.80;;;5.40;88.60;;;;;;5011354;28;20464;-75
2024/03/25 04:22:12;;;;;;;27.88;7.10;;;5.50;90.20;;;;;;5011839;28;20902;-74
2024/03/25 04:24:38;;;;;;;29.75;7.45;;;5.50;88.70;;;;;;5011467;28;20501;-75
2024/03/25 04:27:03;;;;;;;32.90;6.85;;;5.50;89.70;;;;;;5011708;28;20384;-75
2024/03/25 04:29:29;;;;;;;27.58;6.72;;;5.50;89.80;;;;;;5011837;28;20424;-75
2024/03/25 04:31:55;;;;;;;26.52;6.40;;;5.50;91.00;;;;;;5012249;28;20400;-75
2024/03/25 04:34:20;;;;;;;29.17;7.30;;;5.60;87.80;;;;;;5011795;28;20427;-74
2024/03/25 04:36:46;;;;;;;33.83;6.63;;;5.50;87.20;;;;;;5011982;28;20389;-74
2024/03/25 04:39:11;;;;;;;28.67;6.82;;;5.70;86.10;;;;;;5012869;28;20446;-73
2024/03/25 04:41:37;;;;;;;26.20;6.18;;;5.70;86.50;;;;;;5014577;28;20863;-75
2024/03/25 04:44:02;;;;;;;19.33;5.82;;;5.70;84.60;;;;;;5030171;28;20428;-74
2024/03/25 04:46:28;;;;;;;28.88;7.40;;;5.80;83.50;;;;;;5031593;28;20393;-74
2024/03/25 04:48:54;;;;;;;33.13;6.95;;;5.80;81.40;;;;;;4998793;28;20431;-74
2024/03/25 04:51:19;;;;;;;23.38;6.38;;;5.70;82.00;;;;;;5011976;28;20497;-75
2024/03/25 04:53:45;;;;;;;29.88;7.47;;;5.80;80.90;;;;;;5011922;28;20397;-74
2024/03/25 04:56:10;;;;;;;25.88;7.55;;;5.90;78.50;;;;;;5011487;28;20499;-74
2024/03/25 04:58:36;;;;;;;32.75;7.30;;;6.00;76.70;;;;;;5013709;28;20395;-74
2024/03/25 05:01:01;;;;;;;32.33;7.47;;;6.00;77.30;;;;;;5012920;28;20387;-75
2024/03/25 05:03:27;;;;;;;23.42;6.70;;;6.00;76.40;;;;;;5017739;28;20507;-73
2024/03/25 05:05:53;;;;;;;23.83;6.85;;;5.90;77.10;;;;;;5017148;28;20455;-72
2024/03/25 05:08:18;;;;;;;22.17;7.35;;;5.90;77.40;;;;;;5016760;28;20384;-73
2024/03/25 05:10:44;;;;;;;26.37;6.90;;;6.00;76.90;;;;;;5011540;28;20384;-71
2024/03/25 05:13:09;;;;;;;29.63;6.47;;;5.90;77.90;;;;;;5010723;28;20392;-72
2024/03/25 05:15:35;;;;;;;27.80;7.50;;;6.00;76.40;;;;;;5015060;28;20380;-70
2024/03/25 05:18:00;;;;;;;25.57;6.90;;;6.00;76.00;;;;;;5015068;28;20416;-74
2024/03/25 05:20:26;;;;;;;20.53;7.17;;;6.00;75.70;;;;;;5014768;28;20693;-72
2024/03/25 05:22:52;;;;;;;29.48;7.10;;;6.00;75.40;;;;;;5013962;28;20505;-71
2024/03/25 05:25:17;;;;;;;43.10;8.20;;;5.90;77.40;;;;;;5014297;28;20867;-72
2024/03/25 05:27:43;;;;;;;26.27;6.80;;;5.70;78.40;;;;;;5014554;28;20393;-75
2024/03/25 05:30:09;;;;;;;31.80;6.72;;;5.70;79.80;;;;;;5014791;28;20454;-75
2024/03/25 05:32:34;;;;;;;32.25;8.05;;;5.70;79.50;;;;;;5014668;28;20428;-75
2024/03/25 05:35:00;;;;;;;31.53;9.93;;;5.70;81.10;;;;;;5014540;28;20396;-75
2024/03/25 05:37:25;;;;;;;36.00;7.93;;;5.60;82.50;;;;;;4997326;28;20409;-75
2024/03/25 05:39:51;;;;;;;26.57;7.90;;;5.60;81.60;;;;;;5014847;28;20392;-74
2024/03/25 05:42:16;;;;;;;29.70;9.20;;;5.60;81.90;;;;;;5014280;28;20431;-75
2024/03/25 05:44:44;;;;;;;37.17;11.60;;;5.50;82.70;;;;;;4997261;28;20443;-75
2024/03/25 05:47:10;;;;;;;33.88;9.60;;;5.50;82.10;;;;;;5015660;28;20477;-75
2024/03/25 05:49:35;;;;;;;35.60;9.90;;;5.50;82.40;;;;;;5015521;28;20804;-75
2024/03/25 05:52:02;;;;;;;32.88;9.23;;;5.50;82.40;;;;;;5015790;28;20752;-74
2024/03/25 05:54:27;;;;;;;26.33;9.48;;;6.20;82.90;;;;;;5015383;28;20385;-75
2024/03/25 05:56:53;;;;;;;25.30;8.00;;;5.50;82.10;;;;;;5014724;28;20381;-75
2024/03/25 05:59:19;;;;;;;27.83;7.70;;;5.50;81.90;;;;;;5015211;28;20385;-75
2024/03/25 06:01:44;;;;;;;22.23;7.43;;;5.50;81.60;;;;;;5016417;28;20895;-75
2024/03/25 06:04:10;;;;;;;24.90;8.30;;;5.40;82.60;;;;;;5014147;28;20412;-76
2024/03/25 06:06:35;;;;;;;28.40;7.87;;;5.80;79.40;;;;;;5015187;28;20396;-75
2024/03/25 06:09:01;;;;;;;34.37;8.33;;;6.10;74.10;;;;;;5014578;28;20381;-75
2024/03/25 06:11:26;;;;;;;32.60;8.50;;;6.00;74.40;;;;;;5014683;28;20397;-74
2024/03/25 06:13:52;;;;;;;24.97;8.30;;;5.80;78.20;;;;;;5014569;28;20454;-75
2024/03/25 06:16:17;;;;;;;32.93;10.13;;;5.70;81.00;;;;;;5014038;28;20374;-75
2024/03/25 06:18:43;;;;;;;27.47;9.83;;;5.70;82.00;;;;;;5014382;28;20432;-75
2024/03/25 06:21:08;;;;;;;31.43;9.03;;;5.80;80.70;;;;;;5013990;28;20459;-75
2024/03/25 06:23:34;;;;;;;29.63;9.43;;;5.80;80.90;;;;;;4996518;28;20408;-74
2024/03/25 06:25:59;;;;;;;31.23;9.50;;;5.90;79.40;;;;;;5013416;28;20393;-74
2024/03/25 06:28:25;;;;;;;29.17;8.40;;;6.10;78.00;;;;;;5013780;28;20407;-75
2024/03/25 06:36:21;;;;;;;31.38;9.52;;;6.40;72.50;;;;;;5014863;28;20441;-75
2024/03/25 06:38:47;;;;;;;30.10;9.73;;;6.40;72.00;;;;;;5014229;28;20389;-76
2024/03/25 06:41:12;;;;;;;28.70;9.98;;;6.50;70.20;;;;;;5013987;28;20384;-75
2024/03/25 06:43:38;;;;;;;24.73;9.20;;;6.50;70.30;;;;;;5016752;28;20422;-75
2024/03/25 06:46:05;;;;;;;21.95;7.70;;;6.60;69.40;;;;;;5021724;28;20384;-74
2024/03/25 06:48:31;;;;;;;26.45;8.65;;;6.60;68.40;;;;;;4999009;28;20871;-75
2024/03/25 06:50:58;;;;;;;34.47;9.50;;;6.60;69.80;;;;;;5026050;28;20381;-75
2024/03/25 06:53:24;;;;;;;27.10;9.23;;;6.90;69.20;;;;;;5025359;28;20452;-75
2024/03/25 06:55:54;;;;;;;27.08;9.23;;;7.10;66.20;;;;;;5022421;28;20421;-74
2024/03/25 06:58:21;;;;;;;35.60;9.48;;;7.10;67.50;;;;;;5019073;28;20418;-75
2024/03/25 07:00:48;;;;;;;27.73;9.23;;;7.10;67.70;;;;;;5016379;28;20400;-76
2024/03/25 07:03:17;;;;;;;28.50;9.27;;;7.20;65.30;;;;;;5015910;28;20432;-75
2024/03/25 07:05:46;;;;;;;31.80;8.88;;;7.30;63.10;;;;;;5014404;28;20385;-77
2024/03/25 07:08:12;;;;;;;29.10;9.35;;;7.30;62.30;;;;;;5014117;28;20875;-75
2024/03/25 07:10:38;;;;;;;34.05;9.20;;;7.40;63.00;;;;;;5014194;28;20409;-74
2024/03/25 07:13:05;;;;;;;28.15;9.80;;;7.50;61.20;;;;;;4995887;28;20404;-76
2024/03/25 07:15:31;;;;;;;26.35;8.70;;;7.40;59.50;;;;;;5014157;28;20479;-75
2024/03/25 07:17:57;;;;;;;36.17;9.07;;;7.30;61.60;;;;;;5013351;28;20575;-75
2024/03/25 07:20:23;;;;;;;38.85;10.20;;;7.20;60.00;;;;;;5012254;28;20398;-75
2024/03/25 07:22:48;;;;;;;29.83;8.83;;;7.20;60.60;;;;;;5014676;28;20516;-75
2024/03/25 07:25:14;;;;;;;28.17;9.10;;;7.10;59.50;;;;;;5016320;28;20898;-76
2024/03/25 07:27:40;;;;;;;28.30;9.87;;;7.10;60.80;;;;;;5021061;28;20804;-75
2024/03/25 07:30:07;;;;;;;32.00;10.00;;;7.10;58.90;;;;;;5017923;28;20416;-75
2024/03/25 07:32:34;;;;;;;30.60;10.00;;;7.20;58.80;;;;;;5013730;28;20405;-76
2024/03/25 07:35:00;;;;;;;27.17;8.70;;;7.20;58.70;;;;;;5013528;28;20391;-75
2024/03/25 07:37:25;;;;;;;28.45;9.07;;;7.30;58.30;;;;;;5013803;28;20867;-75
2024/03/25 07:39:51;;;;;;;31.83;9.10;;;7.30;57.10;;;;;;5012402;28;20392;-77
2024/03/25 07:42:16;;;;;;;29.65;9.07;;;7.30;56.70;;;;;;5013905;28;20412;-74
2024/03/25 07:44:42;;;;;;;26.33;9.35;;;7.60;55.10;;;;;;5012697;28;20540;-74
2024/03/25 07:47:08;;;;;;;29.42;8.95;;;7.60;55.40;;;;;;5012698;28;20400;-75
2024/03/25 07:49:33;;;;;;;37.00;8.93;;;7.60;54.70;;;;;;5012439;28;20396;-74
2024/03/25 07:52:00;;;;;;;31.80;8.50;;;7.60;54.90;;;;;;5011951;28;20464;-74
2024/03/25 07:54:26;;;;;;;27.33;8.80;;;7.70;55.10;;;;;;5013344;28;20478;-75
2024/03/25 07:56:52;;;;;;;31.30;8.07;;;7.80;55.00;;;;;;5018832;28;20381;-75
2024/03/25 07:59:25;;;;;;;29.17;8.57;;;7.90;53.90;;;;;;5098524;27;20700;-76
2024/03/25 08:01:50;;;;;;;31.23;9.17;;;8.00;52.10;;;;;;5089691;28;20459;-75
2024/03/25 08:04:16;;;;;;;23.67;7.80;;;8.10;52.40;;;;;;5090233;28;20371;-76
2024/03/25 08:06:42;;;;;;;22.60;7.57;;;8.10;51.40;;;;;;5090310;28;20379;-76
2024/03/25 08:09:09;;;;;;;27.07;8.50;;;8.20;50.90;;;;;;5090201;28;20450;-76
2024/03/25 08:11:34;;;;;;;24.83;6.50;;;8.30;50.20;;;;;;5090179;28;20375;-76
2024/03/25 08:14:00;;;;;;;22.00;6.10;;;8.40;48.90;;;;;;5092701;28;20386;-76
2024/03/25 08:16:26;;;;;;;21.40;6.50;;;8.50;45.00;;;;;;5090462;28;20383;-76
2024/03/25 08:18:51;;;;;;;23.67;7.15;;;8.60;45.40;;;;;;5089209;28;20896;-77
2024/03/25 08:21:17;;;;;;;23.05;7.70;;;8.50;46.00;;;;;;5089045;28;20748;-75
2024/03/25 08:23:46;;;;;;;20.67;7.07;;;8.60;45.80;;;;;;5089197;28;20387;-76
2024/03/25 08:26:12;;;;;;;24.98;7.30;;;8.70;45.90;;;;;;5090038;28;20530;-75
2024/03/25 08:28:37;;;;;;;25.67;7.40;;;8.70;46.20;;;;;;5089199;28;20448;-75
2024/03/25 08:31:03;;;;;;;30.77;7.82;;;8.70;45.30;;;;;;5087345;28;20467;-75
2024/03/25 08:33:29;;;;;;;33.30;8.55;;;8.60;45.60;;;;;;5088747;28;20429;-76
2024/03/25 08:35:55;;;;;;;20.90;7.60;;;8.50;46.50;;;;;;5090961;28;20387;-77
2024/03/25 08:38:20;;;;;;;24.37;7.20;;;8.40;45.40;;;;;;5087808;28;20462;-76
2024/03/25 08:40:46;;;;;;;26.07;7.37;;;8.50;44.50;;;;;;5087988;28;20379;-77
2024/03/25 08:43:11;;;;;;;26.90;6.67;;;8.70;43.30;;;;;;5090050;28;20854;-76
2024/03/25 08:45:37;;;;;;;31.10;7.03;;;8.60;43.80;;;;;;5089221;28;20484;-75
2024/03/25 08:48:02;;;;;;;21.60;6.90;;;8.50;45.70;;;;;;5087978;28;20387;-76
2024/03/25 08:50:28;;;;;;;24.77;6.50;;;8.50;46.60;;;;;;5088389;28;20398;-77
2024/03/25 08:52:54;;;;;;;21.40;5.30;;;8.60;44.70;;;;;;5087566;28;20502;-76
2024/03/25 08:55:19;;;;;;;21.93;6.10;;;8.60;43.10;;;;;;5088353;28;20375;-75
2024/03/25 08:57:45;;;;;;;20.70;5.63;;;8.80;42.20;;;;;;5096680;28;20415;-76
2024/03/25 09:00:12;;;;;;;24.17;6.00;;;8.80;41.50;;;;;;5108279;28;20377;-76
2024/03/25 09:02:37;;;;;;;22.02;6.10;;;8.90;39.10;;;;;;5108369;28;20468;-76
2024/03/25 09:05:07;;;;;;;21.17;6.20;;;8.90;39.30;;;;;;5115921;28;20416;-76
2024/03/25 09:07:32;;;;;;;22.92;6.82;;;9.10;39.80;;;;;;5111120;28;20448;-75
2024/03/25 09:12:43;;;;;;;23.90;4.80;;;9.30;38.10;;;;;;5097696;28;21054;-76
2024/03/25 09:15:09;;;;;;;17.20;4.70;;;9.40;35.30;;;;;;5093341;28;20409;-76
2024/03/25 09:17:35;;;;;;;19.58;4.82;;;9.70;34.90;;;;;;5094515;28;20808;-75
2024/03/25 09:20:04;;;;;;;18.92;4.88;;;9.80;32.80;;;;;;5094180;28;20385;-75
2024/03/25 09:22:29;;;;;;;17.67;5.60;;;9.90;31.10;;;;;;5093031;28;20903;-75
2024/03/25 09:24:55;;;;;;;15.83;4.40;;;10.20;31.40;;;;;;5093887;28;20409;-75
2024/03/25 09:27:20;;;;;;;18.73;5.10;;;10.40;30.60;;;;;;5094167;28;20531;-76
2024/03/25 09:29:46;;;;;;;18.10;4.90;;;10.60;30.70;;;;;;5096707;28;20374;-76
2024/03/25 09:32:12;;;;;;;13.03;3.30;;;10.60;31.10;;;;;;5096228;28;20825;-77
2024/03/25 09:34:38;;;;;;;18.15;4.10;;;10.60;28.40;;;;;;5095456;28;20385;-76
2024/03/25 09:37:03;;;;;;;17.20;4.38;;;10.80;28.30;;;;;;5096725;28;20861;-75
2024/03/25 09:39:30;;;;;;;19.52;4.85;;;10.80;27.90;;;;;;5093238;28;20419;-76
2024/03/25 09:41:57;;;;;;;12.60;3.90;;;10.80;27.90;;;;;;5093275;28;20583;-76
2024/03/25 09:44:25;;;;;;;18.85;4.00;;;10.80;28.20;;;;;;5093938;28;20860;-76
2024/03/25 09:46:51;;;;;;;15.70;4.25;;;11.10;26.50;;;;;;5094699;28;20417;-75
2024/03/25 09:49:18;;;;;;;12.95;3.92;;;11.40;26.40;;;;;;5094079;28;20861;-75
2024/03/25 09:51:44;;;;;;;19.42;4.80;;;11.50;27.10;;;;;;5094001;28;20891;-76
2024/03/25 09:54:09;;;;;;;16.30;4.70;;;11.70;27.00;;;;;;5098500;28;20507;-76
2024/03/25 09:56:37;;;;;;;17.98;4.22;;;11.80;25.60;;;;;;5096112;28;20392;-75
2024/03/25 09:59:03;;;;;;;18.63;4.75;;;11.80;24.90;;;;;;5094567;28;20402;-75
2024/03/25 10:01:29;;;;;;;14.25;4.78;;;11.90;23.90;;;;;;5095495;28;20374;-76
2024/03/25 10:03:55;;;;;;;19.13;4.40;;;12.00;22.90;;;;;;5095644;28;20378;-76
2024/03/25 10:06:20;;;;;;;18.57;4.83;;;12.30;22.90;;;;;;5098175;28;20406;-75
2024/03/25 10:08:46;;;;;;;17.30;4.77;;;12.40;22.30;;;;;;5107624;28;20396;-76
2024/03/25 10:11:13;;;;;;;15.20;4.53;;;12.40;22.40;;;;;;5112146;28;20392;-75
2024/03/25 10:13:41;;;;;;;16.20;4.70;;;12.40;22.00;;;;;;5109194;28;21012;-76
2024/03/25 10:16:07;;;;;;;12.82;4.30;;;12.60;22.40;;;;;;5093615;28;20386;-76
2024/03/25 10:18:33;;;;;;;16.65;5.80;;;13.00;20.80;;;;;;5091563;28;20932;-76
2024/03/25 10:20:59;;;;;;;16.63;5.05;;;12.90;20.60;;;;;;5092189;28;20378;-76
2024/03/25 10:23:25;;;;;;;16.47;4.90;;;12.60;20.70;;;;;;5093074;28;20469;-76
2024/03/25 10:25:52;;;;;;;16.58;5.53;;;12.50;20.30;;;;;;5092673;28;20374;-75
2024/03/25 10:28:18;;;;;;;12.23;5.30;;;12.20;21.40;;;;;;5092928;28;20378;-75
2024/03/25 10:30:43;;;;;;;21.50;6.50;;;11.90;23.40;;;;;;5091134;28;20461;-75
2024/03/25 10:33:09;;;;;;;18.48;6.13;;;11.70;24.60;;;;;;5094977;28;20390;-76
2024/03/25 10:35:37;;;;;;;21.20;6.43;;;11.40;25.00;;;;;;5096702;28;20394;-76
2024/03/25 10:38:04;;;;;;;18.98;6.60;;;11.30;25.50;;;;;;5093283;28;20463;-76
2024/03/25 10:40:34;;;;;;;21.85;5.97;;;11.20;25.80;;;;;;5094235;28;20378;-76
2024/03/25 10:43:03;;;;;;;19.00;4.75;;;11.30;26.00;;;;;;5095280;28;20378;-75
2024/03/25 10:45:30;;;;;;;19.27;5.90;;;11.40;25.80;;;;;;5095023;28;20725;-76
2024/03/25 10:48:02;;;;;;;24.42;6.38;;;11.50;26.40;;;;;;5096072;28;20443;-75
2024/03/25 10:50:29;;;;;;;20.35;7.90;;;11.60;25.20;;;;;;5093773;28;20483;-75
2024/03/25 10:52:57;;;;;;;15.93;6.28;;;11.60;24.10;;;;;;5095407;28;20463;-75
2024/03/25 10:55:23;;;;;;;21.98;7.15;;;11.50;23.80;;;;;;5094930;28;20913;-76
2024/03/25 10:57:50;;;;;;;12.30;5.10;;;11.40;23.30;;;;;;5094936;28;20406;-75
2024/03/25 11:00:17;;;;;;;17.73;4.80;;;11.50;23.00;;;;;;5093737;28;20431;-77
2024/03/25 11:02:44;;;;;;;20.35;4.85;;;12.00;21.00;;;;;;5092513;28;20708;-75
2024/03/25 11:05:11;;;;;;;14.57;4.90;;;12.20;21.30;;;;;;5092366;28;20406;-76
2024/03/25 11:07:38;;;;;;;10.40;4.15;;;12.40;20.20;;;;;;5091290;28;20400;-76
2024/03/25 11:10:08;;;;;;;11.98;5.10;;;12.40;19.80;;;;;;5091455;28;20389;-76
2024/03/25 11:12:38;;;;;;;16.55;5.72;;;12.40;19.80;;;;;;5092100;28;20865;-76
2024/03/25 11:15:07;;;;;;;17.48;6.25;;;12.20;20.00;;;;;;5090803;28;20378;-75
2024/03/25 11:17:33;;;;;;;16.10;5.32;;;12.20;21.00;;;;;;5090860;28;20402;-76
2024/03/25 11:20:10;;;;;;;14.50;5.43;;;12.20;20.70;;;;;;5090097;28;20710;-76
2024/03/25 11:22:36;;;;;;;17.20;6.10;;;12.40;20.90;;;;;;5090028;28;20397;-75
2024/03/25 11:25:07;;;;;;;17.00;6.30;;;12.20;21.20;;;;;;5091785;28;20371;-76
2024/03/25 11:27:36;;;;;;;14.43;6.00;;;12.20;21.90;;;;;;5091735;28;20466;-75
2024/03/25 11:30:05;;;;;;;17.00;6.00;;;12.00;21.70;;;;;;5091850;28;20527;-77
2024/03/25 11:32:47;;;;;;;15.38;5.90;;;12.10;22.90;;;;;;5091511;28;20440;-75
2024/03/25 11:35:13;;;;;;;16.20;5.83;;;12.40;20.60;;;;;;5092044;28;20429;-77
2024/03/25 11:37:40;;;;;;;17.40;6.18;;;12.50;20.50;;;;;;5091270;28;20439;-76
2024/03/25 11:40:09;;;;;;;20.35;5.80;;;12.60;20.10;;;;;;5091653;28;20465;-75
2024/03/25 11:42:35;;;;;;;12.93;5.00;;;12.80;19.50;;;;;;5091647;28;20374;-75
2024/03/25 11:45:01;;;;;;;18.83;5.90;;;13.10;19.00;;;;;;5094244;28;20748;-76
2024/03/25 11:47:28;;;;;;;14.00;5.03;;;13.30;19.40;;;;;;5091867;28;20390;-76
2024/03/25 11:49:53;;;;;;;17.50;5.68;;;13.60;18.10;;;;;;5090661;28;20707;-76
2024/03/25 11:52:19;;;;;;;16.97;4.67;;;14.10;17.90;;;;;;5091758;28;20414;-76
2024/03/25 11:54:44;;;;;;;13.30;5.43;;;14.50;17.00;;;;;;5090160;28;20382;-76
2024/03/25 11:57:10;;;;;;;15.63;5.53;;;14.90;15.70;;;;;;5091321;28;20378;-76
2024/03/25 11:59:36;;;;;;;13.10;5.13;;;15.00;15.50;;;;;;5091275;28;20936;-76
2024/03/25 12:02:05;;;;;;;11.80;4.20;;;15.00;15.20;;;;;;5091614;28;20417;-76
2024/03/25 12:04:32;;;;;;;12.55;4.65;;;15.10;11.90;;;;;;5089908;28;20461;-76
2024/03/25 12:06:57;;;;;;;9.88;3.40;;;15.10;11.80;;;;;;5091454;28;20876;-76
2024/03/25 12:12:07;;;;;;;9.82;4.20;;;15.00;10.00;;;;;;5091379;28;20448;-77
2024/03/25 12:14:34;;;;;;;10.52;3.60;;;14.70;11.40;;;;;;5091813;28;20790;-76
2024/03/25 12:16:59;;;;;;;13.30;4.77;;;14.70;11.70;;;;;;5091509;28;20382;-75
2024/03/25 12:19:25;;;;;;;12.70;4.20;;;14.30;13.20;;;;;;5091576;28;20393;-76
2024/03/25 12:21:58;;;;;;;14.47;4.90;;;14.00;13.80;;;;;;5091184;28;20836;-77
2024/03/25 12:24:24;;;;;;;9.00;4.07;;;13.80;14.90;;;;;;5092219;28;20457;-77
2024/03/25 12:26:49;;;;;;;17.27;4.87;;;13.80;14.60;;;;;;5092795;28;20779;-76
2024/03/25 12:29:15;;;;;;;9.30;3.93;;;13.80;13.80;;;;;;5091514;28;20378;-77
2024/03/25 12:31:40;;;;;;;12.80;4.60;;;13.80;14.10;;;;;;5090149;28;20443;-75
2024/03/25 12:34:12;;;;;;;11.73;4.60;;;13.90;14.00;;;;;;5091274;28;20374;-77
2024/03/25 12:36:37;;;;;;;10.85;3.80;;;14.20;13.00;;;;;;5090881;28;20431;-75
2024/03/25 12:39:03;;;;;;;10.57;3.40;;;14.30;13.10;;;;;;5090630;28;20433;-75
2024/03/25 12:41:28;;;;;;;8.88;3.40;;;14.40;12.20;;;;;;5090361;28;20401;-76
2024/03/25 12:43:55;;;;;;;13.77;4.30;;;14.20;11.60;;;;;;5091176;28;20374;-76
2024/03/25 12:46:20;;;;;;;11.55;3.83;;;14.10;12.60;;;;;;5095011;28;20464;-76
2024/03/25 12:48:46;;;;;;;9.53;3.60;;;13.90;13.70;;;;;;5095895;28;20386;-76